sensor_id;sensor_type;location;lat;lon;timestamp;pressure;altitude;pressure_sealevel;temperature;humidity
6194;BME280;3130;41.564;23.280;2022-07-03T00:01:47;99035.13;;;22.80;85.26
6194;BME280;3130;41.564;23.280;2022-07-03T00:04:14;99038.88;;;22.93;85.04
6194;BME280;3130;41.564;23.280;2022-07-03T00:06:43;99039.03;;;23.08;84.20
6194;BME280;3130;41.564;23.280;2022-07-03T00:09:11;99044.59;;;23.13;83.94
6194;BME280;3130;41.564;23.280;2022-07-03T00:11:39;99017.94;;;23.01;83.36
6194;BME280;3130;41.564;23.280;2022-07-03T00:14:06;98997.22;;;22.76;83.21
6194;BME280;3130;41.564;23.280;2022-07-03T00:16:33;99022.53;;;22.83;83.79
6194;BME280;3130;41.564;23.280;2022-07-03T00:19:03;99032.19;;;22.91;83.88
6194;BME280;3130;41.564;23.280;2022-07-03T00:21:34;99032.34;;;22.81;84.50
6194;BME280;3130;41.564;23.280;2022-07-03T00:24:04;99022.41;;;22.61;84.56
6194;BME280;3130;41.564;23.280;2022-07-03T00:26:34;99016.53;;;22.43;85.35
6194;BME280;3130;41.564;23.280;2022-07-03T00:29:03;99026.00;;;22.52;85.57
6194;BME280;3130;41.564;23.280;2022-07-03T00:31:32;98994.44;;;22.30;85.48
6194;BME280;3130;41.564;23.280;2022-07-03T00:34:02;99035.97;;;22.56;85.05
6194;BME280;3130;41.564;23.280;2022-07-03T00:36:33;99029.09;;;22.47;85.37
6194;BME280;3130;41.564;23.280;2022-07-03T00:39:02;99031.53;;;22.33;86.33
6194;BME280;3130;41.564;23.280;2022-07-03T00:41:33;99031.69;;;22.32;86.29
6194;BME280;3130;41.564;23.280;2022-07-03T00:44:01;99013.03;;;22.27;86.07
6194;BME280;3130;41.564;23.280;2022-07-03T00:46:28;99016.63;;;22.26;86.45
6194;BME280;3130;41.564;23.280;2022-07-03T00:48:57;99014.19;;;22.24;86.19
6194;BME280;3130;41.564;23.280;2022-07-03T00:51:28;98995.06;;;22.24;85.89
6194;BME280;3130;41.564;23.280;2022-07-03T00:53:57;99022.25;;;22.46;85.31
6194;BME280;3130;41.564;23.280;2022-07-03T00:56:26;99015.38;;;22.45;84.81
6194;BME280;3130;41.564;23.280;2022-07-03T00:58:55;99020.22;;;22.25;85.75
6194;BME280;3130;41.564;23.280;2022-07-03T01:01:25;99015.50;;;22.20;85.63
6194;BME280;3130;41.564;23.280;2022-07-03T01:04:03;99018.75;;;22.22;85.35
6194;BME280;3130;41.564;23.280;2022-07-03T01:06:38;99023.03;;;22.31;85.45
6194;BME280;3130;41.564;23.280;2022-07-03T01:09:07;99007.03;;;22.26;84.76
6194;BME280;3130;41.564;23.280;2022-07-03T01:11:38;99003.09;;;22.22;84.11
6194;BME280;3130;41.564;23.280;2022-07-03T01:14:17;99022.72;;;22.42;84.32
6194;BME280;3130;41.564;23.280;2022-07-03T01:16:55;99021.41;;;22.38;84.47
6194;BME280;3130;41.564;23.280;2022-07-03T01:19:36;98943.97;;;22.05;84.23
6194;BME280;3130;41.564;23.280;2022-07-03T01:22:26;99027.78;;;22.67;83.39
6194;BME280;3130;41.564;23.280;2022-07-03T01:25:23;98994.47;;;22.53;83.22
6194;BME280;3130;41.564;23.280;2022-07-03T01:28:07;99032.69;;;22.70;83.91
6194;BME280;3130;41.564;23.280;2022-07-03T01:30:36;99036.78;;;22.65;83.55
6194;BME280;3130;41.564;23.280;2022-07-03T01:33:09;99036.78;;;22.65;83.16
6194;BME280;3130;41.564;23.280;2022-07-03T01:35:39;99028.44;;;22.61;82.94
6194;BME280;3130;41.564;23.280;2022-07-03T01:38:09;99042.19;;;22.71;82.34
6194;BME280;3130;41.564;23.280;2022-07-03T01:43:08;99032.84;;;22.77;82.26
6194;BME280;3130;41.564;23.280;2022-07-03T01:45:39;99036.44;;;22.68;82.27
6194;BME280;3130;41.564;23.280;2022-07-03T01:48:10;99037.13;;;22.62;83.04
6194;BME280;3130;41.564;23.280;2022-07-03T01:50:39;99038.75;;;22.47;84.39
6194;BME280;3130;41.564;23.280;2022-07-03T01:53:09;99037.59;;;22.49;84.92
6194;BME280;3130;41.564;23.280;2022-07-03T01:55:38;99048.06;;;22.65;85.00
6194;BME280;3130;41.564;23.280;2022-07-03T01:58:08;99046.75;;;22.69;84.57
6194;BME280;3130;41.564;23.280;2022-07-03T02:00:41;99004.75;;;22.39;84.43
6194;BME280;3130;41.564;23.280;2022-07-03T02:03:27;99059.00;;;22.61;84.59
6194;BME280;3130;41.564;23.280;2022-07-03T02:06:02;98996.22;;;22.21;84.90
6194;BME280;3130;41.564;23.280;2022-07-03T02:08:43;99045.44;;;22.41;85.63
6194;BME280;3130;41.564;23.280;2022-07-03T02:11:15;99038.50;;;22.09;86.37
6194;BME280;3130;41.564;23.280;2022-07-03T02:13:58;99042.75;;;22.02;86.89
6194;BME280;3130;41.564;23.280;2022-07-03T02:16:35;99033.19;;;21.77;87.67
6194;BME280;3130;41.564;23.280;2022-07-03T02:19:05;99022.97;;;21.50;88.27
6194;BME280;3130;41.564;23.280;2022-07-03T02:21:40;99039.91;;;21.46;88.63
6194;BME280;3130;41.564;23.280;2022-07-03T02:24:17;99055.19;;;21.58;88.85
6194;BME280;3130;41.564;23.280;2022-07-03T02:26:50;99057.03;;;21.40;89.52
6194;BME280;3130;41.564;23.280;2022-07-03T02:29:30;99058.34;;;21.19;90.96
6194;BME280;3130;41.564;23.280;2022-07-03T02:32:00;99006.69;;;20.72;92.09
6194;BME280;3130;41.564;23.280;2022-07-03T02:34:31;99053.69;;;20.80;93.90
6194;BME280;3130;41.564;23.280;2022-07-03T02:37:10;99040.69;;;20.62;94.60
6194;BME280;3130;41.564;23.280;2022-07-03T02:39:44;99063.00;;;20.82;94.36
6194;BME280;3130;41.564;23.280;2022-07-03T02:42:22;99056.72;;;20.93;93.94
6194;BME280;3130;41.564;23.280;2022-07-03T02:44:52;99051.72;;;20.99;93.77
6194;BME280;3130;41.564;23.280;2022-07-03T02:47:27;99040.41;;;20.91;93.45
6194;BME280;3130;41.564;23.280;2022-07-03T02:50:03;99045.81;;;20.72;94.25
6194;BME280;3130;41.564;23.280;2022-07-03T02:52:43;99062.63;;;20.77;95.05
6194;BME280;3130;41.564;23.280;2022-07-03T02:55:30;99068.28;;;20.90;94.57
6194;BME280;3130;41.564;23.280;2022-07-03T03:00:58;99085.25;;;20.77;95.52
6194;BME280;3130;41.564;23.280;2022-07-03T03:03:27;99003.34;;;20.19;96.22
6194;BME280;3130;41.564;23.280;2022-07-03T03:06:01;99085.50;;;20.66;96.32
6194;BME280;3130;41.564;23.280;2022-07-03T03:08:35;99082.13;;;20.73;96.28
6194;BME280;3130;41.564;23.280;2022-07-03T03:11:06;99069.34;;;20.62;96.29
6194;BME280;3130;41.564;23.280;2022-07-03T03:13:35;99077.69;;;20.66;96.70
6194;BME280;3130;41.564;23.280;2022-07-03T03:16:07;99075.66;;;20.60;96.91
6194;BME280;3130;41.564;23.280;2022-07-03T03:18:36;99085.50;;;20.66;96.63
6194;BME280;3130;41.564;23.280;2022-07-03T03:21:08;99018.16;;;20.36;96.44
6194;BME280;3130;41.564;23.280;2022-07-03T03:23:44;99084.69;;;20.83;96.17
6194;BME280;3130;41.564;23.280;2022-07-03T03:26:14;99092.50;;;20.83;95.09
6194;BME280;3130;41.564;23.280;2022-07-03T03:28:42;99063.75;;;20.57;95.71
6194;BME280;3130;41.564;23.280;2022-07-03T03:31:11;99093.16;;;20.67;96.17
6194;BME280;3130;41.564;23.280;2022-07-03T03:33:39;99094.28;;;20.65;96.47
6194;BME280;3130;41.564;23.280;2022-07-03T03:36:08;99085.41;;;20.58;96.49
6194;BME280;3130;41.564;23.280;2022-07-03T03:38:35;99104.88;;;20.63;96.53
6194;BME280;3130;41.564;23.280;2022-07-03T03:41:03;99082.75;;;20.50;96.81
6194;BME280;3130;41.564;23.280;2022-07-03T03:43:31;99097.06;;;20.63;96.61
6194;BME280;3130;41.564;23.280;2022-07-03T03:46:00;99098.91;;;20.71;96.53
6194;BME280;3130;41.564;23.280;2022-07-03T03:48:29;99114.31;;;20.82;96.25
6194;BME280;3130;41.564;23.280;2022-07-03T03:50:58;99100.50;;;20.81;95.33
6194;BME280;3130;41.564;23.280;2022-07-03T03:53:26;99065.84;;;20.54;95.14
6194;BME280;3130;41.564;23.280;2022-07-03T03:55:58;99115.38;;;20.89;94.39
6194;BME280;3130;41.564;23.280;2022-07-03T03:58:26;99052.38;;;20.58;93.72
6194;BME280;3130;41.564;23.280;2022-07-03T04:00:55;99118.69;;;20.99;93.61
6194;BME280;3130;41.564;23.280;2022-07-03T04:03:23;99096.97;;;20.90;93.57
6194;BME280;3130;41.564;23.280;2022-07-03T04:05:53;99118.88;;;20.97;93.76
6194;BME280;3130;41.564;23.280;2022-07-03T04:08:21;99038.25;;;20.43;94.14
6194;BME280;3130;41.564;23.280;2022-07-03T04:10:49;99114.16;;;21.01;94.84
6194;BME280;3130;41.564;23.280;2022-07-03T04:13:17;99113.84;;;21.04;94.01
6194;BME280;3130;41.564;23.280;2022-07-03T04:15:46;99105.41;;;21.10;93.37
6194;BME280;3130;41.564;23.280;2022-07-03T04:18:13;99113.13;;;21.19;93.09
6194;BME280;3130;41.564;23.280;2022-07-03T04:20:41;99115.63;;;21.29;92.33
6194;BME280;3130;41.564;23.280;2022-07-03T04:23:10;99104.75;;;21.33;91.76
6194;BME280;3130;41.564;23.280;2022-07-03T04:25:38;99076.31;;;21.22;91.22
6194;BME280;3130;41.564;23.280;2022-07-03T04:28:05;99111.16;;;21.64;91.13
6194;BME280;3130;41.564;23.280;2022-07-03T04:30:32;99113.66;;;21.73;90.34
6194;BME280;3130;41.564;23.280;2022-07-03T04:33:00;99125.31;;;21.95;89.91
6194;BME280;3130;41.564;23.280;2022-07-03T04:35:27;99089.50;;;21.79;88.78
6194;BME280;3130;41.564;23.280;2022-07-03T04:37:55;99129.63;;;22.12;88.93
6194;BME280;3130;41.564;23.280;2022-07-03T04:40:24;99110.34;;;22.13;89.12
6194;BME280;3130;41.564;23.280;2022-07-03T04:42:51;99090.13;;;22.15;88.64
6194;BME280;3130;41.564;23.280;2022-07-03T04:45:19;99103.59;;;22.36;88.22
6194;BME280;3130;41.564;23.280;2022-07-03T04:47:47;99128.78;;;22.68;87.51
6194;BME280;3130;41.564;23.280;2022-07-03T04:50:14;99114.06;;;22.75;86.74
6194;BME280;3130;41.564;23.280;2022-07-03T04:52:41;99110.16;;;22.79;86.86
6194;BME280;3130;41.564;23.280;2022-07-03T04:55:09;99123.75;;;22.99;86.88
6194;BME280;3130;41.564;23.280;2022-07-03T04:57:39;99132.25;;;23.17;84.71
6194;BME280;3130;41.564;23.280;2022-07-03T05:00:09;99086.44;;;23.05;83.41
6194;BME280;3130;41.564;23.280;2022-07-03T05:02:37;99119.31;;;23.39;82.99
6194;BME280;3130;41.564;23.280;2022-07-03T05:05:05;99114.22;;;23.45;82.85
6194;BME280;3130;41.564;23.280;2022-07-03T05:07:33;99119.25;;;23.63;82.46
6194;BME280;3130;41.564;23.280;2022-07-03T05:10:00;99120.84;;;23.72;82.12
6194;BME280;3130;41.564;23.280;2022-07-03T05:12:27;99125.56;;;23.84;80.92
6194;BME280;3130;41.564;23.280;2022-07-03T05:14:56;99127.16;;;23.93;80.49
6194;BME280;3130;41.564;23.280;2022-07-03T05:17:23;99121.59;;;23.96;79.05
6194;BME280;3130;41.564;23.280;2022-07-03T05:19:51;99131.00;;;24.13;78.54
6194;BME280;3130;41.564;23.280;2022-07-03T05:22:38;99097.16;;;24.04;78.71
6194;BME280;3130;41.564;23.280;2022-07-03T05:25:06;99107.53;;;24.20;77.85
6194;BME280;3130;41.564;23.280;2022-07-03T05:27:35;99107.84;;;24.25;77.71
6194;BME280;3130;41.564;23.280;2022-07-03T05:30:05;99089.50;;;24.25;75.62
6194;BME280;3130;41.564;23.280;2022-07-03T05:32:33;99057.28;;;24.16;74.37
6194;BME280;3130;41.564;23.280;2022-07-03T05:35:01;99133.66;;;24.66;73.39
6194;BME280;3130;41.564;23.280;2022-07-03T05:37:28;99143.63;;;24.70;73.34
6194;BME280;3130;41.564;23.280;2022-07-03T05:39:56;99142.47;;;24.73;72.37
6194;BME280;3130;41.564;23.280;2022-07-03T05:42:23;99143.59;;;24.78;72.22
6194;BME280;3130;41.564;23.280;2022-07-03T05:44:51;99070.03;;;24.50;72.82
6194;BME280;3130;41.564;23.280;2022-07-03T05:47:19;99085.28;;;24.68;72.39
6194;BME280;3130;41.564;23.280;2022-07-03T05:49:47;99064.16;;;24.62;70.78
6194;BME280;3130;41.564;23.280;2022-07-03T05:52:15;99090.22;;;24.86;70.47
6194;BME280;3130;41.564;23.280;2022-07-03T05:54:42;99136.06;;;25.20;69.60
6194;BME280;3130;41.564;23.280;2022-07-03T05:57:10;99133.88;;;25.24;69.50
6194;BME280;3130;41.564;23.280;2022-07-03T05:59:38;99136.78;;;25.29;69.01
6194;BME280;3130;41.564;23.280;2022-07-03T06:02:05;99079.41;;;25.03;68.46
6194;BME280;3130;41.564;23.280;2022-07-03T06:04:34;99118.50;;;25.35;67.95
6194;BME280;3130;41.564;23.280;2022-07-03T06:07:01;99129.41;;;25.47;68.02
6194;BME280;3130;41.564;23.280;2022-07-03T06:09:28;99132.00;;;25.61;67.07
6194;BME280;3130;41.564;23.280;2022-07-03T06:11:56;99135.56;;;25.68;67.00
6194;BME280;3130;41.564;23.280;2022-07-03T06:14:24;99123.50;;;25.73;66.32
6194;BME280;3130;41.564;23.280;2022-07-03T06:16:51;99132.06;;;25.90;65.47
6194;BME280;3130;41.564;23.280;2022-07-03T06:19:19;99134.47;;;26.06;64.77
6194;BME280;3130;41.564;23.280;2022-07-03T06:21:47;99110.81;;;26.06;64.01
6194;BME280;3130;41.564;23.280;2022-07-03T06:24:15;99133.59;;;26.34;63.44
6194;BME280;3130;41.564;23.280;2022-07-03T06:26:42;99134.13;;;26.44;62.80
6194;BME280;3130;41.564;23.280;2022-07-03T06:29:09;99124.75;;;26.56;63.14
6194;BME280;3130;41.564;23.280;2022-07-03T06:31:36;99122.44;;;26.67;62.38
6194;BME280;3130;41.564;23.280;2022-07-03T06:34:03;99141.84;;;26.87;62.92
6194;BME280;3130;41.564;23.280;2022-07-03T06:36:31;99131.97;;;27.10;61.17
6194;BME280;3130;41.564;23.280;2022-07-03T06:38:59;99105.69;;;26.96;61.84
6194;BME280;3130;41.564;23.280;2022-07-03T06:41:26;99049.63;;;26.74;61.94
6194;BME280;3130;41.564;23.280;2022-07-03T06:43:54;99112.69;;;27.37;59.86
6194;BME280;3130;41.564;23.280;2022-07-03T06:46:21;99109.34;;;27.50;58.69
6194;BME280;3130;41.564;23.280;2022-07-03T06:48:48;99122.06;;;27.67;59.02
6194;BME280;3130;41.564;23.280;2022-07-03T06:51:15;99128.03;;;27.82;59.62
6194;BME280;3130;41.564;23.280;2022-07-03T06:53:42;99120.31;;;27.87;60.37
6194;BME280;3130;41.564;23.280;2022-07-03T06:56:11;99123.41;;;27.90;59.81
6194;BME280;3130;41.564;23.280;2022-07-03T06:58:38;99130.94;;;28.00;59.30
6194;BME280;3130;41.564;23.280;2022-07-03T07:01:05;99120.81;;;28.03;58.62
6194;BME280;3130;41.564;23.280;2022-07-03T07:03:32;99114.91;;;28.01;58.53
6194;BME280;3130;41.564;23.280;2022-07-03T07:05:59;99118.78;;;27.99;58.84
6194;BME280;3130;41.564;23.280;2022-07-03T07:08:27;99093.56;;;27.90;58.31
6194;BME280;3130;41.564;23.280;2022-07-03T07:10:54;99051.53;;;27.75;58.47
6194;BME280;3130;41.564;23.280;2022-07-03T07:13:23;99019.84;;;27.69;56.95
6194;BME280;3130;41.564;23.280;2022-07-03T07:15:50;99104.91;;;28.31;57.89
6194;BME280;3130;41.564;23.280;2022-07-03T07:18:17;99088.69;;;28.34;57.44
6194;BME280;3130;41.564;23.280;2022-07-03T07:20:44;99102.31;;;28.57;56.60
6194;BME280;3130;41.564;23.280;2022-07-03T07:23:11;99095.03;;;28.72;56.13
6194;BME280;3130;41.564;23.280;2022-07-03T07:25:38;99049.13;;;28.53;56.06
6194;BME280;3130;41.564;23.280;2022-07-03T07:28:06;99086.13;;;28.92;55.47
6194;BME280;3130;41.564;23.280;2022-07-03T07:30:34;99088.16;;;29.16;55.56
6194;BME280;3130;41.564;23.280;2022-07-03T07:33:02;99099.50;;;29.36;55.24
6194;BME280;3130;41.564;23.280;2022-07-03T07:35:29;99100.72;;;29.46;53.05
6194;BME280;3130;41.564;23.280;2022-07-03T07:37:56;99079.16;;;29.49;53.31
6194;BME280;3130;41.564;23.280;2022-07-03T07:40:23;99086.28;;;29.55;53.15
6194;BME280;3130;41.564;23.280;2022-07-03T07:42:50;99084.84;;;29.66;52.69
6194;BME280;3130;41.564;23.280;2022-07-03T07:45:18;99084.56;;;29.86;53.21
6194;BME280;3130;41.564;23.280;2022-07-03T07:47:47;99079.81;;;30.08;51.53
6194;BME280;3130;41.564;23.280;2022-07-03T07:50:14;99091.72;;;30.30;49.98
6194;BME280;3130;41.564;23.280;2022-07-03T07:52:41;99093.91;;;30.39;49.81
6194;BME280;3130;41.564;23.280;2022-07-03T07:55:09;99086.78;;;30.71;49.09
6194;BME280;3130;41.564;23.280;2022-07-03T07:57:36;99082.97;;;31.15;46.80
6194;BME280;3130;41.564;23.280;2022-07-03T08:00:07;99087.94;;;31.48;46.40
6194;BME280;3130;41.564;23.280;2022-07-03T08:02:35;99082.91;;;31.82;44.50
6194;BME280;3130;41.564;23.280;2022-07-03T08:05:20;99076.72;;;31.88;44.11
6194;BME280;3130;41.564;23.280;2022-07-03T08:08:05;99051.44;;;31.68;43.89
6194;BME280;3130;41.564;23.280;2022-07-03T08:10:37;99068.00;;;31.81;44.14
6194;BME280;3130;41.564;23.280;2022-07-03T08:13:06;99072.44;;;31.87;44.31
6194;BME280;3130;41.564;23.280;2022-07-03T08:15:34;99074.88;;;31.71;43.22
6194;BME280;3130;41.564;23.280;2022-07-03T08:18:01;99063.75;;;31.62;44.81
6194;BME280;3130;41.564;23.280;2022-07-03T08:20:30;99058.88;;;31.59;44.22
6194;BME280;3130;41.564;23.280;2022-07-03T08:22:58;99057.88;;;31.54;43.65
6194;BME280;3130;41.564;23.280;2022-07-03T08:25:25;99045.13;;;31.44;42.84
6194;BME280;3130;41.564;23.280;2022-07-03T08:27:53;99059.28;;;31.56;42.42
6194;BME280;3130;41.564;23.280;2022-07-03T08:30:20;99051.63;;;31.48;42.59
6194;BME280;3130;41.564;23.280;2022-07-03T08:32:48;99059.22;;;31.63;41.75
6194;BME280;3130;41.564;23.280;2022-07-03T08:35:16;98988.94;;;31.36;41.59
6194;BME280;3130;41.564;23.280;2022-07-03T08:37:45;99063.06;;;31.85;41.13
6194;BME280;3130;41.564;23.280;2022-07-03T08:40:14;99052.22;;;31.86;41.15
6194;BME280;3130;41.564;23.280;2022-07-03T08:42:45;99050.28;;;31.93;40.16
6194;BME280;3130;41.564;23.280;2022-07-03T08:45:14;99051.28;;;31.63;41.47
6194;BME280;3130;41.564;23.280;2022-07-03T08:47:42;99036.41;;;31.62;40.85
6194;BME280;3130;41.564;23.280;2022-07-03T08:50:10;99042.78;;;31.54;40.86
6194;BME280;3130;41.564;23.280;2022-07-03T08:52:57;99036.59;;;31.78;41.54
6194;BME280;3130;41.564;23.280;2022-07-03T08:55:26;99022.28;;;31.97;41.38
6194;BME280;3130;41.564;23.280;2022-07-03T08:57:54;99033.00;;;32.20;40.26
6194;BME280;3130;41.564;23.280;2022-07-03T09:00:23;99037.78;;;32.29;40.32
6194;BME280;3130;41.564;23.280;2022-07-03T09:02:50;99034.53;;;32.27;39.76
6194;BME280;3130;41.564;23.280;2022-07-03T09:05:17;99033.38;;;32.23;39.94
6194;BME280;3130;41.564;23.280;2022-07-03T09:07:46;99024.59;;;32.23;40.21
6194;BME280;3130;41.564;23.280;2022-07-03T09:10:15;99008.66;;;32.23;39.50
6194;BME280;3130;41.564;23.280;2022-07-03T09:12:44;99012.59;;;32.32;39.20
6194;BME280;3130;41.564;23.280;2022-07-03T09:15:12;98959.28;;;32.04;38.60
6194;BME280;3130;41.564;23.280;2022-07-03T09:17:39;99018.84;;;32.37;38.03
6194;BME280;3130;41.564;23.280;2022-07-03T09:20:08;99012.84;;;32.42;38.44
6194;BME280;3130;41.564;23.280;2022-07-03T09:22:36;99007.91;;;32.45;38.84
6194;BME280;3130;41.564;23.280;2022-07-03T09:25:05;99010.97;;;32.31;38.28
6194;BME280;3130;41.564;23.280;2022-07-03T09:27:35;99005.38;;;32.50;38.43
6194;BME280;3130;41.564;23.280;2022-07-03T09:30:04;99004.44;;;32.56;37.75
6194;BME280;3130;41.564;23.280;2022-07-03T09:32:32;98996.81;;;32.60;38.27
6194;BME280;3130;41.564;23.280;2022-07-03T09:35:15;98995.91;;;32.54;38.75
6194;BME280;3130;41.564;23.280;2022-07-03T09:37:48;98990.47;;;32.61;38.42
6194;BME280;3130;41.564;23.280;2022-07-03T09:40:16;98981.03;;;32.76;38.01
6194;BME280;3130;41.564;23.280;2022-07-03T09:42:58;98997.09;;;33.04;37.24
6194;BME280;3130;41.564;23.280;2022-07-03T09:45:26;99004.06;;;33.16;37.13
6194;BME280;3130;41.564;23.280;2022-07-03T09:47:53;98964.66;;;32.91;35.92
6194;BME280;3130;41.564;23.280;2022-07-03T09:50:20;98985.91;;;33.02;36.03
6194;BME280;3130;41.564;23.280;2022-07-03T09:52:48;98980.22;;;33.10;36.48
6194;BME280;3130;41.564;23.280;2022-07-03T09:55:17;98949.28;;;32.93;36.05
6194;BME280;3130;41.564;23.280;2022-07-03T09:57:57;98979.06;;;33.29;36.02
6194;BME280;3130;41.564;23.280;2022-07-03T10:00:27;98979.06;;;33.17;36.93
6194;BME280;3130;41.564;23.280;2022-07-03T10:02:57;98974.22;;;33.14;37.16
6194;BME280;3130;41.564;23.280;2022-07-03T10:05:27;98972.97;;;33.17;37.42
6194;BME280;3130;41.564;23.280;2022-07-03T10:07:56;98974.22;;;33.26;35.58
6194;BME280;3130;41.564;23.280;2022-07-03T10:10:24;98950.53;;;33.13;34.58
6194;BME280;3130;41.564;23.280;2022-07-03T10:12:53;98957.31;;;33.09;35.02
6194;BME280;3130;41.564;23.280;2022-07-03T10:15:21;98973.41;;;33.02;35.37
6194;BME280;3130;41.564;23.280;2022-07-03T10:17:52;98958.03;;;32.82;35.43
6194;BME280;3130;41.564;23.280;2022-07-03T10:20:27;98954.22;;;32.78;35.74
6194;BME280;3130;41.564;23.280;2022-07-03T10:22:55;98956.09;;;32.77;35.57
6194;BME280;3130;41.564;23.280;2022-07-03T10:25:23;98939.00;;;32.73;35.81
6194;BME280;3130;41.564;23.280;2022-07-03T10:27:50;98954.47;;;32.76;36.30
6194;BME280;3130;41.564;23.280;2022-07-03T10:30:19;98945.22;;;32.79;35.48
6194;BME280;3130;41.564;23.280;2022-07-03T10:32:48;98946.16;;;32.84;35.55
6194;BME280;3130;41.564;23.280;2022-07-03T10:35:20;98945.00;;;32.80;34.95
6194;BME280;3130;41.564;23.280;2022-07-03T10:37:58;98938.41;;;32.71;35.40
6194;BME280;3130;41.564;23.280;2022-07-03T10:40:37;98932.06;;;32.72;35.07
6194;BME280;3130;41.564;23.280;2022-07-03T10:43:27;98921.88;;;32.69;35.14
6194;BME280;3130;41.564;23.280;2022-07-03T10:46:13;98927.19;;;32.92;36.09
6194;BME280;3130;41.564;23.280;2022-07-03T10:48:57;98920.81;;;33.04;35.29
6194;BME280;3130;41.564;23.280;2022-07-03T10:51:28;98924.63;;;33.08;34.99
6194;BME280;3130;41.564;23.280;2022-07-03T10:54:16;98913.16;;;33.08;34.16
6194;BME280;3130;41.564;23.280;2022-07-03T10:57:09;98913.31;;;32.90;34.88
6194;BME280;3130;41.564;23.280;2022-07-03T11:00:15;98908.25;;;32.77;35.89
6194;BME280;3130;41.564;23.280;2022-07-03T11:02:48;98876.72;;;32.69;34.79
6194;BME280;3130;41.564;23.280;2022-07-03T11:05:21;98905.13;;;32.92;34.22
6194;BME280;3130;41.564;23.280;2022-07-03T11:08:07;98876.63;;;32.76;33.63
6194;BME280;3130;41.564;23.280;2022-07-03T11:10:36;98896.22;;;32.86;33.31
6194;BME280;3130;41.564;23.280;2022-07-03T11:13:13;98887.00;;;32.77;33.67
6194;BME280;3130;41.564;23.280;2022-07-03T11:15:51;98898.78;;;32.93;33.96
6194;BME280;3130;41.564;23.280;2022-07-03T11:18:21;98890.63;;;33.10;33.62
6194;BME280;3130;41.564;23.280;2022-07-03T11:24:37;98879.00;;;33.00;33.50
6194;BME280;3130;41.564;23.280;2022-07-03T11:27:19;98881.72;;;33.05;34.02
6194;BME280;3130;41.564;23.280;2022-07-03T11:29:56;98875.47;;;33.11;34.29
6194;BME280;3130;41.564;23.280;2022-07-03T11:32:52;98877.31;;;33.22;33.26
6194;BME280;3130;41.564;23.280;2022-07-03T11:35:45;98872.22;;;33.32;34.02
6194;BME280;3130;41.564;23.280;2022-07-03T11:38:20;98879.47;;;33.36;34.43
6194;BME280;3130;41.564;23.280;2022-07-03T11:40:51;98875.31;;;33.57;33.88
6194;BME280;3130;41.564;23.280;2022-07-03T11:43:19;98867.00;;;33.65;32.55
6194;BME280;3130;41.564;23.280;2022-07-03T11:45:47;98874.72;;;33.66;32.57
6194;BME280;3130;41.564;23.280;2022-07-03T11:48:16;98855.00;;;33.79;32.97
6194;BME280;3130;41.564;23.280;2022-07-03T11:50:45;98857.91;;;33.94;32.75
6194;BME280;3130;41.564;23.280;2022-07-03T11:53:16;98832.03;;;33.73;32.26
6194;BME280;3130;41.564;23.280;2022-07-03T11:55:49;98840.00;;;33.73;32.48
6194;BME280;3130;41.564;23.280;2022-07-03T11:58:17;98847.41;;;33.71;32.70
6194;BME280;3130;41.564;23.280;2022-07-03T12:00:44;98832.72;;;33.68;32.08
6194;BME280;3130;41.564;23.280;2022-07-03T12:03:15;98844.91;;;33.81;31.72
6194;BME280;3130;41.564;23.280;2022-07-03T12:05:54;98834.56;;;33.84;31.78
6194;BME280;3130;41.564;23.280;2022-07-03T12:08:22;98827.91;;;33.82;32.20
6194;BME280;3130;41.564;23.280;2022-07-03T12:10:56;98828.31;;;33.90;32.29
6194;BME280;3130;41.564;23.280;2022-07-03T12:13:24;98815.88;;;33.96;32.41
6194;BME280;3130;41.564;23.280;2022-07-03T12:15:51;98824.97;;;33.83;32.23
6194;BME280;3130;41.564;23.280;2022-07-03T12:18:19;98813.63;;;33.88;32.34
6194;BME280;3130;41.564;23.280;2022-07-03T12:20:46;98778.53;;;33.74;32.36
6194;BME280;3130;41.564;23.280;2022-07-03T12:23:13;98802.81;;;33.94;32.34
6194;BME280;3130;41.564;23.280;2022-07-03T12:25:40;98803.44;;;34.01;32.78
6194;BME280;3130;41.564;23.280;2022-07-03T12:28:10;98794.91;;;33.99;33.06
6194;BME280;3130;41.564;23.280;2022-07-03T12:30:39;98780.06;;;33.87;33.46
6194;BME280;3130;41.564;23.280;2022-07-03T12:33:06;98791.59;;;34.08;33.41
6194;BME280;3130;41.564;23.280;2022-07-03T12:35:34;98790.28;;;34.27;33.21
6194;BME280;3130;41.564;23.280;2022-07-03T12:38:01;98785.28;;;34.52;32.46
6194;BME280;3130;41.564;23.280;2022-07-03T12:40:28;98778.91;;;34.70;30.77
6194;BME280;3130;41.564;23.280;2022-07-03T12:42:55;98775.41;;;34.69;31.65
6194;BME280;3130;41.564;23.280;2022-07-03T12:45:26;98755.41;;;34.50;30.99
6194;BME280;3130;41.564;23.280;2022-07-03T12:47:58;98773.44;;;34.60;30.42
6194;BME280;3130;41.564;23.280;2022-07-03T12:50:26;98760.00;;;34.33;30.35
6194;BME280;3130;41.564;23.280;2022-07-03T12:53:09;98764.59;;;34.38;31.26
6194;BME280;3130;41.564;23.280;2022-07-03T12:55:44;98719.91;;;34.07;31.04
6194;BME280;3130;41.564;23.280;2022-07-03T12:58:12;98761.63;;;34.34;31.38
6194;BME280;3130;41.564;23.280;2022-07-03T13:01:23;98753.53;;;34.29;31.10
6194;BME280;3130;41.564;23.280;2022-07-03T13:03:50;98755.41;;;34.29;30.84
6194;BME280;3130;41.564;23.280;2022-07-03T13:06:20;98764.19;;;34.29;31.45
6194;BME280;3130;41.564;23.280;2022-07-03T13:08:54;98755.16;;;34.30;32.13
6194;BME280;3130;41.564;23.280;2022-07-03T13:11:27;98745.44;;;34.41;31.55
6194;BME280;3130;41.564;23.280;2022-07-03T13:14:02;98717.00;;;34.25;31.24
6194;BME280;3130;41.564;23.280;2022-07-03T13:16:36;98756.78;;;34.53;30.46
6194;BME280;3130;41.564;23.280;2022-07-03T13:19:05;98754.66;;;34.55;30.54
6194;BME280;3130;41.564;23.280;2022-07-03T13:21:32;98750.34;;;34.49;30.23
6194;BME280;3130;41.564;23.280;2022-07-03T13:24:00;98748.56;;;34.33;31.03
6194;BME280;3130;41.564;23.280;2022-07-03T13:26:27;98724.25;;;33.75;31.35
6194;BME280;3130;41.564;23.280;2022-07-03T13:28:54;98748.75;;;33.94;31.70
6194;BME280;3130;41.564;23.280;2022-07-03T13:31:21;98744.31;;;34.15;32.38
6194;BME280;3130;41.564;23.280;2022-07-03T13:33:51;98662.38;;;33.85;31.74
6194;BME280;3130;41.564;23.280;2022-07-03T13:36:19;98705.59;;;34.29;31.64
6194;BME280;3130;41.564;23.280;2022-07-03T13:38:49;98732.28;;;34.72;31.80